sensor_id;sensor_type;location;lat;lon;timestamp;P1;durP1;ratioP1;P2;durP2;ratioP2
34353;SDS011;20618;0.000;0.000;2023-07-20T00:01:58;5.05;;;2.10;;
34353;SDS011;20618;0.000;0.000;2023-07-20T00:04:25;4.60;;;1.88;;
34353;SDS011;20618;0.000;0.000;2023-07-20T00:06:51;6.93;;;2.15;;
34353;SDS011;20618;0.000;0.000;2023-07-20T00:09:17;5.03;;;1.70;;
34353;SDS011;20618;0.000;0.000;2023-07-20T00:11:50;7.40;;;2.22;;
34353;SDS011;20618;0.000;0.000;2023-07-20T00:14:17;6.13;;;1.90;;
34353;SDS011;20618;0.000;0.000;2023-07-20T00:16:44;5.25;;;1.90;;
34353;SDS011;20618;0.000;0.000;2023-07-20T00:19:11;5.18;;;2.00;;
34353;SDS011;20618;0.000;0.000;2023-07-20T00:21:37;5.78;;;1.90;;
34353;SDS011;20618;0.000;0.000;2023-07-20T00:24:07;4.25;;;1.90;;
34353;SDS011;20618;0.000;0.000;2023-07-20T00:26:33;6.75;;;2.08;;
34353;SDS011;20618;0.000;0.000;2023-07-20T00:29:00;3.83;;;2.00;;
34353;SDS011;20618;0.000;0.000;2023-07-20T00:31:26;10.80;;;2.13;;
34353;SDS011;20618;0.000;0.000;2023-07-20T00:33:52;4.70;;;2.20;;
34353;SDS011;20618;0.000;0.000;2023-07-20T00:36:18;5.47;;;2.13;;
34353;SDS011;20618;0.000;0.000;2023-07-20T00:38:44;5.30;;;1.80;;
34353;SDS011;20618;0.000;0.000;2023-07-20T00:41:10;4.80;;;1.92;;
34353;SDS011;20618;0.000;0.000;2023-07-20T00:43:38;4.05;;;2.10;;
34353;SDS011;20618;0.000;0.000;2023-07-20T00:46:04;4.13;;;2.03;;
34353;SDS011;20618;0.000;0.000;2023-07-20T00:48:31;4.45;;;1.98;;
34353;SDS011;20618;0.000;0.000;2023-07-20T00:51:01;5.55;;;1.80;;
34353;SDS011;20618;0.000;0.000;2023-07-20T00:53:27;3.95;;;1.52;;
34353;SDS011;20618;0.000;0.000;2023-07-20T00:55:54;5.07;;;1.88;;
34353;SDS011;20618;0.000;0.000;2023-07-20T00:58:20;5.60;;;2.28;;
34353;SDS011;20618;0.000;0.000;2023-07-20T01:00:46;2.88;;;1.70;;
34353;SDS011;20618;0.000;0.000;2023-07-20T01:03:12;4.78;;;2.03;;
34353;SDS011;20618;0.000;0.000;2023-07-20T01:05:44;4.13;;;1.88;;
34353;SDS011;20618;0.000;0.000;2023-07-20T01:08:17;4.80;;;1.90;;
34353;SDS011;20618;0.000;0.000;2023-07-20T01:10:50;5.85;;;2.03;;
34353;SDS011;20618;0.000;0.000;2023-07-20T01:13:20;5.22;;;2.15;;
34353;SDS011;20618;0.000;0.000;2023-07-20T01:15:50;6.40;;;2.65;;
34353;SDS011;20618;0.000;0.000;2023-07-20T01:18:16;3.67;;;1.95;;
34353;SDS011;20618;0.000;0.000;2023-07-20T01:20:43;4.03;;;2.03;;
34353;SDS011;20618;0.000;0.000;2023-07-20T01:28:19;7.85;;;2.10;;
34353;SDS011;20618;0.000;0.000;2023-07-20T01:33:22;4.50;;;1.90;;
34353;SDS011;20618;0.000;0.000;2023-07-20T01:35:53;4.43;;;2.20;;
34353;SDS011;20618;0.000;0.000;2023-07-20T01:38:20;3.03;;;1.58;;
34353;SDS011;20618;0.000;0.000;2023-07-20T01:40:47;4.15;;;2.05;;
34353;SDS011;20618;0.000;0.000;2023-07-20T01:43:14;6.60;;;1.95;;
34353;SDS011;20618;0.000;0.000;2023-07-20T01:45:40;5.78;;;2.22;;
34353;SDS011;20618;0.000;0.000;2023-07-20T01:48:06;4.50;;;2.08;;
34353;SDS011;20618;0.000;0.000;2023-07-20T01:50:32;3.67;;;2.10;;
34353;SDS011;20618;0.000;0.000;2023-07-20T01:52:59;5.00;;;1.98;;
34353;SDS011;20618;0.000;0.000;2023-07-20T01:55:26;3.90;;;1.73;;
34353;SDS011;20618;0.000;0.000;2023-07-20T01:57:52;5.22;;;1.83;;
34353;SDS011;20618;0.000;0.000;2023-07-20T02:00:18;3.85;;;1.60;;
34353;SDS011;20618;0.000;0.000;2023-07-20T02:02:49;5.07;;;2.20;;
34353;SDS011;20618;0.000;0.000;2023-07-20T02:05:15;5.05;;;2.13;;
34353;SDS011;20618;0.000;0.000;2023-07-20T02:07:41;5.35;;;2.03;;
34353;SDS011;20618;0.000;0.000;2023-07-20T02:10:08;3.97;;;1.90;;
34353;SDS011;20618;0.000;0.000;2023-07-20T02:12:34;3.53;;;1.70;;
34353;SDS011;20618;0.000;0.000;2023-07-20T02:15:01;3.70;;;1.95;;
34353;SDS011;20618;0.000;0.000;2023-07-20T02:17:27;4.95;;;1.90;;
34353;SDS011;20618;0.000;0.000;2023-07-20T02:19:53;5.18;;;1.92;;
34353;SDS011;20618;0.000;0.000;2023-07-20T02:22:20;4.13;;;1.83;;
34353;SDS011;20618;0.000;0.000;2023-07-20T02:24:46;6.60;;;2.20;;
34353;SDS011;20618;0.000;0.000;2023-07-20T02:27:13;5.75;;;2.03;;
34353;SDS011;20618;0.000;0.000;2023-07-20T02:29:40;4.70;;;2.20;;
34353;SDS011;20618;0.000;0.000;2023-07-20T02:32:07;4.60;;;2.00;;
34353;SDS011;20618;0.000;0.000;2023-07-20T02:34:34;3.90;;;1.92;;
34353;SDS011;20618;0.000;0.000;2023-07-20T02:37:00;3.80;;;1.85;;
34353;SDS011;20618;0.000;0.000;2023-07-20T02:39:27;5.65;;;2.05;;
34353;SDS011;20618;0.000;0.000;2023-07-20T02:41:53;4.05;;;1.80;;
34353;SDS011;20618;0.000;0.000;2023-07-20T02:44:19;4.05;;;1.95;;
34353;SDS011;20618;0.000;0.000;2023-07-20T02:46:45;3.40;;;1.88;;
34353;SDS011;20618;0.000;0.000;2023-07-20T02:49:12;4.75;;;1.80;;
34353;SDS011;20618;0.000;0.000;2023-07-20T02:51:38;4.07;;;1.95;;
34353;SDS011;20618;0.000;0.000;2023-07-20T02:54:04;3.70;;;1.98;;
34353;SDS011;20618;0.000;0.000;2023-07-20T02:56:30;3.50;;;2.00;;
34353;SDS011;20618;0.000;0.000;2023-07-20T02:58:56;6.88;;;1.80;;
34353;SDS011;20618;0.000;0.000;2023-07-20T03:01:23;4.90;;;2.08;;
34353;SDS011;20618;0.000;0.000;2023-07-20T03:03:49;4.90;;;2.05;;
34353;SDS011;20618;0.000;0.000;2023-07-20T03:06:15;3.90;;;1.95;;
34353;SDS011;20618;0.000;0.000;2023-07-20T03:08:42;4.35;;;1.77;;
34353;SDS011;20618;0.000;0.000;2023-07-20T03:11:17;3.95;;;2.05;;
34353;SDS011;20618;0.000;0.000;2023-07-20T03:13:44;3.47;;;2.10;;
34353;SDS011;20618;0.000;0.000;2023-07-20T03:16:11;3.85;;;1.88;;
34353;SDS011;20618;0.000;0.000;2023-07-20T03:18:38;6.68;;;2.00;;
34353;SDS011;20618;0.000;0.000;2023-07-20T03:21:04;4.18;;;1.60;;
34353;SDS011;20618;0.000;0.000;2023-07-20T03:23:31;5.22;;;2.05;;
34353;SDS011;20618;0.000;0.000;2023-07-20T03:25:57;4.40;;;1.85;;
34353;SDS011;20618;0.000;0.000;2023-07-20T03:28:23;4.13;;;2.13;;
34353;SDS011;20618;0.000;0.000;2023-07-20T03:30:56;5.05;;;1.98;;
34353;SDS011;20618;0.000;0.000;2023-07-20T03:33:24;6.03;;;1.90;;
34353;SDS011;20618;0.000;0.000;2023-07-20T03:35:50;4.20;;;1.67;;
34353;SDS011;20618;0.000;0.000;2023-07-20T03:38:16;4.38;;;2.00;;
34353;SDS011;20618;0.000;0.000;2023-07-20T03:40:49;5.60;;;1.98;;
34353;SDS011;20618;0.000;0.000;2023-07-20T03:43:16;4.18;;;1.98;;
34353;SDS011;20618;0.000;0.000;2023-07-20T03:45:42;3.97;;;1.67;;
34353;SDS011;20618;0.000;0.000;2023-07-20T03:48:09;4.15;;;1.98;;
34353;SDS011;20618;0.000;0.000;2023-07-20T03:50:36;5.78;;;2.00;;
34353;SDS011;20618;0.000;0.000;2023-07-20T03:53:02;4.68;;;1.95;;
34353;SDS011;20618;0.000;0.000;2023-07-20T03:55:28;4.32;;;1.90;;
34353;SDS011;20618;0.000;0.000;2023-07-20T03:57:54;4.13;;;2.08;;
34353;SDS011;20618;0.000;0.000;2023-07-20T04:00:20;4.75;;;2.08;;
34353;SDS011;20618;0.000;0.000;2023-07-20T04:02:46;6.28;;;2.08;;
34353;SDS011;20618;0.000;0.000;2023-07-20T04:05:12;4.63;;;1.75;;
34353;SDS011;20618;0.000;0.000;2023-07-20T04:07:39;3.65;;;1.83;;
34353;SDS011;20618;0.000;0.000;2023-07-20T04:10:05;5.45;;;1.88;;
34353;SDS011;20618;0.000;0.000;2023-07-20T04:12:31;4.45;;;1.60;;
34353;SDS011;20618;0.000;0.000;2023-07-20T04:14:58;3.72;;;1.77;;
34353;SDS011;20618;0.000;0.000;2023-07-20T04:17:24;4.30;;;2.00;;
34353;SDS011;20618;0.000;0.000;2023-07-20T04:19:50;4.72;;;2.13;;
34353;SDS011;20618;0.000;0.000;2023-07-20T04:22:16;2.95;;;1.40;;
34353;SDS011;20618;0.000;0.000;2023-07-20T04:24:42;3.15;;;1.55;;
34353;SDS011;20618;0.000;0.000;2023-07-20T04:27:08;3.40;;;1.80;;
34353;SDS011;20618;0.000;0.000;2023-07-20T04:29:34;7.20;;;2.20;;
34353;SDS011;20618;0.000;0.000;2023-07-20T04:32:01;6.20;;;1.73;;
34353;SDS011;20618;0.000;0.000;2023-07-20T04:34:27;3.30;;;1.73;;
34353;SDS011;20618;0.000;0.000;2023-07-20T04:36:53;4.40;;;1.90;;
34353;SDS011;20618;0.000;0.000;2023-07-20T04:39:19;3.42;;;1.98;;
34353;SDS011;20618;0.000;0.000;2023-07-20T04:41:45;4.03;;;1.67;;
34353;SDS011;20618;0.000;0.000;2023-07-20T04:44:12;3.30;;;1.80;;
34353;SDS011;20618;0.000;0.000;2023-07-20T04:46:39;3.25;;;1.73;;
34353;SDS011;20618;0.000;0.000;2023-07-20T04:49:05;2.80;;;1.52;;
34353;SDS011;20618;0.000;0.000;2023-07-20T04:51:31;4.03;;;1.55;;
34353;SDS011;20618;0.000;0.000;2023-07-20T04:53:58;3.17;;;1.65;;
34353;SDS011;20618;0.000;0.000;2023-07-20T04:56:24;2.85;;;1.60;;
34353;SDS011;20618;0.000;0.000;2023-07-20T04:58:50;4.10;;;2.10;;
34353;SDS011;20618;0.000;0.000;2023-07-20T05:03:52;4.20;;;2.03;;
34353;SDS011;20618;0.000;0.000;2023-07-20T05:06:19;3.78;;;1.55;;
34353;SDS011;20618;0.000;0.000;2023-07-20T05:08:45;3.85;;;2.03;;
34353;SDS011;20618;0.000;0.000;2023-07-20T05:11:11;2.95;;;1.55;;
34353;SDS011;20618;0.000;0.000;2023-07-20T05:13:37;3.60;;;1.63;;
34353;SDS011;20618;0.000;0.000;2023-07-20T05:16:03;4.43;;;1.83;;
34353;SDS011;20618;0.000;0.000;2023-07-20T05:18:30;2.20;;;1.40;;
34353;SDS011;20618;0.000;0.000;2023-07-20T05:20:56;3.50;;;1.90;;
34353;SDS011;20618;0.000;0.000;2023-07-20T05:23:22;3.92;;;2.08;;
34353;SDS011;20618;0.000;0.000;2023-07-20T05:25:58;4.07;;;1.58;;
34353;SDS011;20618;0.000;0.000;2023-07-20T05:28:24;3.65;;;1.70;;
34353;SDS011;20618;0.000;0.000;2023-07-20T05:30:54;3.67;;;1.70;;
34353;SDS011;20618;0.000;0.000;2023-07-20T05:33:20;2.80;;;1.70;;
34353;SDS011;20618;0.000;0.000;2023-07-20T05:35:46;2.88;;;1.60;;
34353;SDS011;20618;0.000;0.000;2023-07-20T05:38:13;3.25;;;1.70;;
34353;SDS011;20618;0.000;0.000;2023-07-20T05:40:40;3.30;;;1.70;;
34353;SDS011;20618;0.000;0.000;2023-07-20T05:43:07;2.55;;;1.60;;
34353;SDS011;20618;0.000;0.000;2023-07-20T05:45:33;3.17;;;1.63;;
34353;SDS011;20618;0.000;0.000;2023-07-20T05:47:59;2.38;;;1.42;;
34353;SDS011;20618;0.000;0.000;2023-07-20T05:50:25;3.92;;;1.60;;
34353;SDS011;20618;0.000;0.000;2023-07-20T05:52:53;2.72;;;1.40;;
34353;SDS011;20618;0.000;0.000;2023-07-20T05:55:19;4.15;;;1.75;;
34353;SDS011;20618;0.000;0.000;2023-07-20T05:57:46;2.42;;;1.40;;
34353;SDS011;20618;0.000;0.000;2023-07-20T06:00:13;3.20;;;1.55;;
34353;SDS011;20618;0.000;0.000;2023-07-20T06:02:39;2.65;;;1.60;;
34353;SDS011;20618;0.000;0.000;2023-07-20T06:05:08;3.10;;;1.83;;
34353;SDS011;20618;0.000;0.000;2023-07-20T06:07:38;3.72;;;1.52;;
34353;SDS011;20618;0.000;0.000;2023-07-20T06:10:04;4.22;;;1.77;;
34353;SDS011;20618;0.000;0.000;2023-07-20T06:12:31;3.15;;;1.75;;
34353;SDS011;20618;0.000;0.000;2023-07-20T06:15:03;4.40;;;1.67;;
34353;SDS011;20618;0.000;0.000;2023-07-20T06:17:30;4.68;;;1.50;;
34353;SDS011;20618;0.000;0.000;2023-07-20T06:19:56;5.05;;;1.65;;
34353;SDS011;20618;0.000;0.000;2023-07-20T06:22:22;6.15;;;2.00;;
34353;SDS011;20618;0.000;0.000;2023-07-20T06:24:48;4.53;;;1.67;;
34353;SDS011;20618;0.000;0.000;2023-07-20T06:27:14;5.78;;;1.60;;
34353;SDS011;20618;0.000;0.000;2023-07-20T06:29:41;3.53;;;1.70;;
34353;SDS011;20618;0.000;0.000;2023-07-20T06:32:07;6.03;;;1.73;;
34353;SDS011;20618;0.000;0.000;2023-07-20T06:34:33;4.00;;;1.80;;
34353;SDS011;20618;0.000;0.000;2023-07-20T06:37:03;4.13;;;1.58;;
34353;SDS011;20618;0.000;0.000;2023-07-20T06:39:30;8.10;;;2.10;;
34353;SDS011;20618;0.000;0.000;2023-07-20T06:41:56;6.18;;;1.80;;
34353;SDS011;20618;0.000;0.000;2023-07-20T06:44:22;7.00;;;1.98;;
34353;SDS011;20618;0.000;0.000;2023-07-20T06:46:48;6.93;;;1.67;;
34353;SDS011;20618;0.000;0.000;2023-07-20T06:49:27;5.32;;;1.58;;
34353;SDS011;20618;0.000;0.000;2023-07-20T06:51:53;3.58;;;1.67;;
34353;SDS011;20618;0.000;0.000;2023-07-20T06:54:19;8.32;;;1.90;;
34353;SDS011;20618;0.000;0.000;2023-07-20T06:56:45;5.07;;;2.10;;
34353;SDS011;20618;0.000;0.000;2023-07-20T06:59:11;13.25;;;2.15;;
34353;SDS011;20618;0.000;0.000;2023-07-20T07:01:38;14.45;;;2.70;;
34353;SDS011;20618;0.000;0.000;2023-07-20T07:04:04;11.23;;;2.00;;
34353;SDS011;20618;0.000;0.000;2023-07-20T07:06:30;8.57;;;2.00;;
34353;SDS011;20618;0.000;0.000;2023-07-20T07:08:58;18.02;;;2.67;;
34353;SDS011;20618;0.000;0.000;2023-07-20T07:11:24;9.40;;;2.00;;
34353;SDS011;20618;0.000;0.000;2023-07-20T07:13:50;16.40;;;2.10;;
34353;SDS011;20618;0.000;0.000;2023-07-20T07:16:16;7.68;;;1.98;;
34353;SDS011;20618;0.000;0.000;2023-07-20T07:18:44;6.50;;;2.13;;
34353;SDS011;20618;0.000;0.000;2023-07-20T07:21:11;10.68;;;2.20;;
34353;SDS011;20618;0.000;0.000;2023-07-20T07:23:40;9.13;;;2.13;;
34353;SDS011;20618;0.000;0.000;2023-07-20T07:26:06;10.20;;;2.30;;
34353;SDS011;20618;0.000;0.000;2023-07-20T07:28:32;12.68;;;2.40;;
34353;SDS011;20618;0.000;0.000;2023-07-20T07:30:58;21.48;;;2.92;;
34353;SDS011;20618;0.000;0.000;2023-07-20T07:33:24;10.75;;;1.92;;
34353;SDS011;20618;0.000;0.000;2023-07-20T07:35:50;9.50;;;2.15;;
34353;SDS011;20618;0.000;0.000;2023-07-20T07:38:20;9.90;;;2.17;;
34353;SDS011;20618;0.000;0.000;2023-07-20T07:40:46;11.45;;;2.33;;
34353;SDS011;20618;0.000;0.000;2023-07-20T07:43:12;14.02;;;2.55;;
34353;SDS011;20618;0.000;0.000;2023-07-20T07:45:39;7.63;;;2.25;;
34353;SDS011;20618;0.000;0.000;2023-07-20T07:48:06;11.10;;;2.50;;
34353;SDS011;20618;0.000;0.000;2023-07-20T07:50:32;20.23;;;2.83;;
34353;SDS011;20618;0.000;0.000;2023-07-20T07:52:58;13.15;;;2.47;;
34353;SDS011;20618;0.000;0.000;2023-07-20T07:55:25;13.07;;;2.53;;
34353;SDS011;20618;0.000;0.000;2023-07-20T07:57:54;9.25;;;2.42;;
34353;SDS011;20618;0.000;0.000;2023-07-20T08:00:20;12.20;;;2.78;;
34353;SDS011;20618;0.000;0.000;2023-07-20T08:02:46;15.70;;;2.67;;
34353;SDS011;20618;0.000;0.000;2023-07-20T08:05:15;18.52;;;2.50;;
34353;SDS011;20618;0.000;0.000;2023-07-20T08:07:41;12.80;;;1.90;;
34353;SDS011;20618;0.000;0.000;2023-07-20T08:10:08;12.90;;;2.42;;
34353;SDS011;20618;0.000;0.000;2023-07-20T08:12:34;10.55;;;2.13;;
34353;SDS011;20618;0.000;0.000;2023-07-20T08:15:00;15.88;;;2.53;;
34353;SDS011;20618;0.000;0.000;2023-07-20T08:17:26;24.70;;;2.72;;
34353;SDS011;20618;0.000;0.000;2023-07-20T08:19:52;14.68;;;2.13;;
34353;SDS011;20618;0.000;0.000;2023-07-20T08:22:19;13.55;;;2.53;;
34353;SDS011;20618;0.000;0.000;2023-07-20T08:24:45;15.32;;;2.40;;
34353;SDS011;20618;0.000;0.000;2023-07-20T08:27:11;11.38;;;2.47;;
34353;SDS011;20618;0.000;0.000;2023-07-20T08:29:37;11.45;;;2.17;;
34353;SDS011;20618;0.000;0.000;2023-07-20T08:32:04;12.88;;;2.42;;
34353;SDS011;20618;0.000;0.000;2023-07-20T08:34:30;12.23;;;2.25;;
34353;SDS011;20618;0.000;0.000;2023-07-20T08:36:57;10.80;;;2.60;;
34353;SDS011;20618;0.000;0.000;2023-07-20T08:39:23;16.45;;;2.75;;
34353;SDS011;20618;0.000;0.000;2023-07-20T08:41:50;15.35;;;2.40;;
34353;SDS011;20618;0.000;0.000;2023-07-20T08:44:19;17.73;;;2.63;;
34353;SDS011;20618;0.000;0.000;2023-07-20T08:46:45;13.68;;;2.65;;
34353;SDS011;20618;0.000;0.000;2023-07-20T08:49:13;11.45;;;2.42;;
34353;SDS011;20618;0.000;0.000;2023-07-20T08:51:41;17.42;;;2.47;;
34353;SDS011;20618;0.000;0.000;2023-07-20T08:54:07;15.70;;;2.72;;
34353;SDS011;20618;0.000;0.000;2023-07-20T08:56:35;22.98;;;3.17;;
34353;SDS011;20618;0.000;0.000;2023-07-20T08:59:02;18.13;;;2.60;;
34353;SDS011;20618;0.000;0.000;2023-07-20T09:01:29;23.42;;;2.67;;
34353;SDS011;20618;0.000;0.000;2023-07-20T09:03:55;12.73;;;2.50;;
34353;SDS011;20618;0.000;0.000;2023-07-20T09:06:21;13.30;;;3.08;;
34353;SDS011;20618;0.000;0.000;2023-07-20T09:08:47;18.30;;;3.03;;
34353;SDS011;20618;0.000;0.000;2023-07-20T09:11:14;18.00;;;2.70;;
34353;SDS011;20618;0.000;0.000;2023-07-20T09:13:40;16.30;;;2.90;;
34353;SDS011;20618;0.000;0.000;2023-07-20T09:16:06;17.63;;;3.33;;
34353;SDS011;20618;0.000;0.000;2023-07-20T09:18:32;22.73;;;3.28;;
34353;SDS011;20618;0.000;0.000;2023-07-20T09:21:02;24.67;;;2.97;;
34353;SDS011;20618;0.000;0.000;2023-07-20T09:23:37;13.35;;;2.83;;
34353;SDS011;20618;0.000;0.000;2023-07-20T09:26:10;16.00;;;2.55;;
34353;SDS011;20618;0.000;0.000;2023-07-20T09:28:41;23.40;;;3.08;;
34353;SDS011;20618;0.000;0.000;2023-07-20T09:31:15;18.27;;;2.88;;
34353;SDS011;20618;0.000;0.000;2023-07-20T09:33:42;22.15;;;2.83;;
34353;SDS011;20618;0.000;0.000;2023-07-20T09:36:09;21.73;;;3.05;;
34353;SDS011;20618;0.000;0.000;2023-07-20T09:38:36;22.88;;;3.08;;
34353;SDS011;20618;0.000;0.000;2023-07-20T09:41:04;27.98;;;4.03;;
34353;SDS011;20618;0.000;0.000;2023-07-20T09:43:34;23.55;;;3.22;;
34353;SDS011;20618;0.000;0.000;2023-07-20T09:46:00;20.40;;;3.53;;
34353;SDS011;20618;0.000;0.000;2023-07-20T09:48:26;16.85;;;3.20;;
34353;SDS011;20618;0.000;0.000;2023-07-20T09:50:53;27.58;;;3.72;;
34353;SDS011;20618;0.000;0.000;2023-07-20T09:53:20;18.75;;;2.90;;
34353;SDS011;20618;0.000;0.000;2023-07-20T09:55:47;21.23;;;3.22;;
34353;SDS011;20618;0.000;0.000;2023-07-20T09:58:14;14.20;;;2.75;;
34353;SDS011;20618;0.000;0.000;2023-07-20T10:00:41;21.30;;;2.95;;
34353;SDS011;20618;0.000;0.000;2023-07-20T10:03:13;15.77;;;3.03;;
34353;SDS011;20618;0.000;0.000;2023-07-20T10:05:42;17.08;;;2.72;;
34353;SDS011;20618;0.000;0.000;2023-07-20T10:08:11;18.25;;;2.42;;
34353;SDS011;20618;0.000;0.000;2023-07-20T10:10:37;16.50;;;2.55;;
34353;SDS011;20618;0.000;0.000;2023-07-20T10:13:04;16.85;;;2.63;;
34353;SDS011;20618;0.000;0.000;2023-07-20T10:15:37;12.48;;;2.03;;
34353;SDS011;20618;0.000;0.000;2023-07-20T10:18:20;11.13;;;2.45;;
34353;SDS011;20618;0.000;0.000;2023-07-20T10:20:48;12.85;;;2.45;;
34353;SDS011;20618;0.000;0.000;2023-07-20T10:23:15;11.75;;;2.30;;
34353;SDS011;20618;0.000;0.000;2023-07-20T10:25:42;15.05;;;2.40;;
34353;SDS011;20618;0.000;0.000;2023-07-20T10:28:09;16.38;;;2.50;;
34353;SDS011;20618;0.000;0.000;2023-07-20T10:30:36;15.55;;;2.92;;
34353;SDS011;20618;0.000;0.000;2023-07-20T10:33:03;17.13;;;2.55;;
34353;SDS011;20618;0.000;0.000;2023-07-20T10:35:29;19.75;;;2.78;;
34353;SDS011;20618;0.000;0.000;2023-07-20T10:38:02;12.25;;;2.40;;
34353;SDS011;20618;0.000;0.000;2023-07-20T10:40:32;15.15;;;2.17;;
34353;SDS011;20618;0.000;0.000;2023-07-20T10:43:02;17.88;;;2.40;;
34353;SDS011;20618;0.000;0.000;2023-07-20T10:48:17;16.85;;;2.40;;
34353;SDS011;20618;0.000;0.000;2023-07-20T10:50:44;13.40;;;2.45;;
34353;SDS011;20618;0.000;0.000;2023-07-20T10:53:14;12.32;;;2.70;;
34353;SDS011;20618;0.000;0.000;2023-07-20T10:55:40;11.43;;;2.15;;
34353;SDS011;20618;0.000;0.000;2023-07-20T10:58:12;15.60;;;2.67;;
34353;SDS011;20618;0.000;0.000;2023-07-20T11:00:56;18.55;;;2.75;;
34353;SDS011;20618;0.000;0.000;2023-07-20T11:03:31;17.13;;;2.42;;
34353;SDS011;20618;0.000;0.000;2023-07-20T11:05:58;16.77;;;2.53;;
34353;SDS011;20618;0.000;0.000;2023-07-20T11:08:43;15.20;;;2.47;;
34353;SDS011;20618;0.000;0.000;2023-07-20T11:11:43;7.65;;;2.08;;
34353;SDS011;20618;0.000;0.000;2023-07-20T11:14:05;13.10;;;2.40;;
34353;SDS011;20618;0.000;0.000;2023-07-20T11:16:34;10.45;;;2.58;;
34353;SDS011;20618;0.000;0.000;2023-07-20T11:19:01;11.55;;;2.25;;
34353;SDS011;20618;0.000;0.000;2023-07-20T11:21:28;39.28;;;4.97;;
34353;SDS011;20618;0.000;0.000;2023-07-20T11:23:55;41.92;;;4.20;;
34353;SDS011;20618;0.000;0.000;2023-07-20T11:26:21;70.65;;;7.70;;
34353;SDS011;20618;0.000;0.000;2023-07-20T11:28:50;43.75;;;4.63;;
34353;SDS011;20618;0.000;0.000;2023-07-20T11:31:17;16.20;;;2.70;;
34353;SDS011;20618;0.000;0.000;2023-07-20T11:33:44;22.05;;;3.30;;
34353;SDS011;20618;0.000;0.000;2023-07-20T11:36:10;24.33;;;3.13;;
34353;SDS011;20618;0.000;0.000;2023-07-20T11:38:37;32.75;;;4.18;;
34353;SDS011;20618;0.000;0.000;2023-07-20T11:41:04;40.67;;;4.85;;
34353;SDS011;20618;0.000;0.000;2023-07-20T11:43:30;32.25;;;4.05;;
34353;SDS011;20618;0.000;0.000;2023-07-20T11:45:56;31.20;;;4.00;;
34353;SDS011;20618;0.000;0.000;2023-07-20T11:48:22;21.60;;;3.55;;
34353;SDS011;20618;0.000;0.000;2023-07-20T11:50:49;31.83;;;3.80;;
34353;SDS011;20618;0.000;0.000;2023-07-20T11:53:15;18.90;;;3.03;;
34353;SDS011;20618;0.000;0.000;2023-07-20T11:55:41;15.27;;;3.03;;
34353;SDS011;20618;0.000;0.000;2023-07-20T11:58:08;25.23;;;3.25;;
34353;SDS011;20618;0.000;0.000;2023-07-20T12:00:36;21.45;;;2.75;;
34353;SDS011;20618;0.000;0.000;2023-07-20T12:03:04;16.45;;;2.88;;
34353;SDS011;20618;0.000;0.000;2023-07-20T12:05:32;35.23;;;3.43;;
34353;SDS011;20618;0.000;0.000;2023-07-20T12:07:58;22.42;;;3.08;;
34353;SDS011;20618;0.000;0.000;2023-07-20T12:10:28;22.00;;;2.47;;
34353;SDS011;20618;0.000;0.000;2023-07-20T12:12:54;23.85;;;3.33;;
34353;SDS011;20618;0.000;0.000;2023-07-20T12:15:24;14.98;;;3.03;;
34353;SDS011;20618;0.000;0.000;2023-07-20T12:18:00;18.13;;;2.75;;
34353;SDS011;20618;0.000;0.000;2023-07-20T12:22:55;29.45;;;3.70;;
34353;SDS011;20618;0.000;0.000;2023-07-20T12:25:21;32.95;;;4.10;;
34353;SDS011;20618;0.000;0.000;2023-07-20T12:27:47;18.65;;;3.20;;
34353;SDS011;20618;0.000;0.000;2023-07-20T12:30:14;27.15;;;3.42;;
34353;SDS011;20618;0.000;0.000;2023-07-20T12:32:40;19.40;;;3.08;;
34353;SDS011;20618;0.000;0.000;2023-07-20T12:35:06;16.13;;;2.72;;
34353;SDS011;20618;0.000;0.000;2023-07-20T12:37:32;18.65;;;3.08;;
34353;SDS011;20618;0.000;0.000;2023-07-20T12:39:58;18.85;;;3.17;;
34353;SDS011;20618;0.000;0.000;2023-07-20T12:42:25;23.70;;;3.25;;
34353;SDS011;20618;0.000;0.000;2023-07-20T12:44:51;14.75;;;2.90;;
34353;SDS011;20618;0.000;0.000;2023-07-20T12:47:17;16.15;;;2.72;;
34353;SDS011;20618;0.000;0.000;2023-07-20T12:49:44;18.05;;;2.78;;
34353;SDS011;20618;0.000;0.000;2023-07-20T12:52:11;17.98;;;3.00;;
34353;SDS011;20618;0.000;0.000;2023-07-20T12:54:38;17.95;;;2.83;;
34353;SDS011;20618;0.000;0.000;2023-07-20T12:57:04;14.52;;;2.78;;
34353;SDS011;20618;0.000;0.000;2023-07-20T12:59:30;17.02;;;2.65;;
34353;SDS011;20618;0.000;0.000;2023-07-20T13:01:56;14.63;;;2.60;;
34353;SDS011;20618;0.000;0.000;2023-07-20T13:04:22;22.30;;;3.20;;
34353;SDS011;20618;0.000;0.000;2023-07-20T13:06:49;12.55;;;2.33;;
34353;SDS011;20618;0.000;0.000;2023-07-20T13:09:15;18.77;;;2.45;;
34353;SDS011;20618;0.000;0.000;2023-07-20T13:11:41;20.73;;;3.88;;
34353;SDS011;20618;0.000;0.000;2023-07-20T13:14:08;18.05;;;2.72;;
34353;SDS011;20618;0.000;0.000;2023-07-20T13:16:34;16.02;;;3.28;;
34353;SDS011;20618;0.000;0.000;2023-07-20T13:19:00;17.48;;;3.05;;
34353;SDS011;20618;0.000;0.000;2023-07-20T13:21:27;20.33;;;3.13;;
34353;SDS011;20618;0.000;0.000;2023-07-20T13:23:54;28.23;;;3.47;;
34353;SDS011;20618;0.000;0.000;2023-07-20T13:26:20;13.10;;;2.85;;
34353;SDS011;20618;0.000;0.000;2023-07-20T13:28:46;19.20;;;2.95;;
34353;SDS011;20618;0.000;0.000;2023-07-20T13:31:12;26.38;;;4.55;;
34353;SDS011;20618;0.000;0.000;2023-07-20T13:33:38;21.90;;;3.58;;
34353;SDS011;20618;0.000;0.000;2023-07-20T13:36:05;13.88;;;2.90;;
34353;SDS011;20618;0.000;0.000;2023-07-20T13:38:31;17.52;;;2.80;;
34353;SDS011;20618;0.000;0.000;2023-07-20T13:40:57;15.65;;;2.97;;
34353;SDS011;20618;0.000;0.000;2023-07-20T13:43:23;23.52;;;3.80;;
34353;SDS011;20618;0.000;0.000;2023-07-20T13:45:50;18.95;;;3.05;;
34353;SDS011;20618;0.000;0.000;2023-07-20T13:48:16;30.27;;;3.45;;
34353;SDS011;20618;0.000;0.000;2023-07-20T13:50:44;28.63;;;3.70;;
34353;SDS011;20618;0.000;0.000;2023-07-20T13:53:11;19.77;;;3.17;;
34353;SDS011;20618;0.000;0.000;2023-07-20T13:55:38;21.08;;;3.17;;
34353;SDS011;20618;0.000;0.000;2023-07-20T13:58:04;23.92;;;2.67;;
34353;SDS011;20618;0.000;0.000;2023-07-20T14:00:30;19.88;;;2.95;;
34353;SDS011;20618;0.000;0.000;2023-07-20T14:02:58;17.00;;;3.30;;
34353;SDS011;20618;0.000;0.000;2023-07-20T14:05:24;20.25;;;2.92;;
34353;SDS011;20618;0.000;0.000;2023-07-20T14:07:51;16.83;;;2.50;;
34353;SDS011;20618;0.000;0.000;2023-07-20T14:10:17;17.40;;;3.47;;
34353;SDS011;20618;0.000;0.000;2023-07-20T14:12:43;23.27;;;4.18;;
34353;SDS011;20618;0.000;0.000;2023-07-20T14:15:10;25.52;;;3.42;;
34353;SDS011;20618;0.000;0.000;2023-07-20T14:17:37;11.45;;;3.00;;
34353;SDS011;20618;0.000;0.000;2023-07-20T14:20:03;26.92;;;3.33;;
34353;SDS011;20618;0.000;0.000;2023-07-20T14:24:59;24.55;;;3.33;;
34353;SDS011;20618;0.000;0.000;2023-07-20T14:27:25;15.25;;;3.42;;
34353;SDS011;20618;0.000;0.000;2023-07-20T14:29:51;20.98;;;3.65;;
34353;SDS011;20618;0.000;0.000;2023-07-20T14:32:18;19.23;;;3.35;;
34353;SDS011;20618;0.000;0.000;2023-07-20T14:34:44;25.10;;;3.60;;
34353;SDS011;20618;0.000;0.000;2023-07-20T14:37:10;17.02;;;3.20;;
34353;SDS011;20618;0.000;0.000;2023-07-20T14:39:37;17.95;;;3.40;;
34353;SDS011;20618;0.000;0.000;2023-07-20T14:42:04;20.15;;;2.95;;
34353;SDS011;20618;0.000;0.000;2023-07-20T14:44:30;23.35;;;3.30;;
34353;SDS011;20618;0.000;0.000;2023-07-20T14:46:56;26.92;;;3.53;;
34353;SDS011;20618;0.000;0.000;2023-07-20T14:49:22;25.85;;;3.42;;
34353;SDS011;20618;0.000;0.000;2023-07-20T14:51:49;16.35;;;3.20;;
34353;SDS011;20618;0.000;0.000;2023-07-20T14:54:15;19.13;;;3.42;;
34353;SDS011;20618;0.000;0.000;2023-07-20T14:56:48;18.65;;;3.10;;
34353;SDS011;20618;0.000;0.000;2023-07-20T14:59:18;25.30;;;4.13;;
34353;SDS011;20618;0.000;0.000;2023-07-20T15:01:44;19.27;;;3.33;;
34353;SDS011;20618;0.000;0.000;2023-07-20T15:04:11;16.15;;;3.08;;
34353;SDS011;20618;0.000;0.000;2023-07-20T15:06:37;17.55;;;3.22;;
34353;SDS011;20618;0.000;0.000;2023-07-20T15:09:03;26.55;;;3.38;;
34353;SDS011;20618;0.000;0.000;2023-07-20T15:11:30;19.77;;;3.00;;
34353;SDS011;20618;0.000;0.000;2023-07-20T15:13:56;19.90;;;3.33;;